Data for 05/31/2014

Time Sea-Level Adjusted Pressure Absolute Pressure Temperature Relative Humidity Dew Point   
(mb) (inHg) (mb) (inHg) (C) (F) (%) (C) (F)
00:05 1017 30.03 846 24.98 14.3 57.8 58 6.2 43.2
00:10 1017 30.03 846 24.98 14.3 57.7 58 6.1 43
00:15 1017 30.03 846 24.98 14.2 57.5 58 6.2 43.1
00:20 1017 30.03 846 24.98 14.1 57.4 58 6.1 43
00:25 1017 30.03 846 24.98 14.1 57.4 58 6.1 43
00:30 1017 30.03 846 24.98 14.1 57.4 58 6.1 43
00:35 1017 30.03 846 24.98 14.1 57.3 59 6.1 43.1
00:40 1017 30.03 846 24.98 14 57.2 59 6.1 43
00:45 1017 30.03 846 24.98 14 57.1 59 6.1 43
00:50 1017 30.03 846 24.98 13.9 57 59 6.1 43
00:55 1017 30.03 846 24.98 13.9 57 59 6.1 43.1
01:00 1017 30.03 846 24.98 13.8 56.9 59 6.1 43
01:05 1017 30.03 846 24.98 13.8 56.8 60 6.2 43.1
01:10 1017 30.03 846 24.98 13.7 56.7 60 6.1 43
01:15 1017 30.03 846 24.98 13.8 56.9 59 6 42.9
01:20 1017 30.03 846 24.98 14 57.1 59 6.1 42.9
01:25 1017 30.03 846 24.98 14 57.2 59 6.1 43.1
01:30 1017 30.03 846 24.98 13.9 57 59 6.1 42.9
01:35 1017 30.03 846 24.98 13.9 57 59 6.1 43
01:40 1017 30.03 846 24.98 13.8 56.8 59 6.1 42.9
01:45 1017 30.03 846 24.98 13.6 56.5 60 6 42.8
01:50 1016 30 846 24.98 13.6 56.5 60 6 42.8
01:55 1016 30 846 24.98 13.6 56.5 60 6 42.9
02:00 1016 30 845 24.95 13.5 56.2 61 6.2 43.2
02:05 1016 30 845 24.95 13.5 56.3 60 6 42.8
02:10 1016 30 845 24.95 13.6 56.5 60 6 42.9
02:15 1016 30 845 24.95 13.7 56.7 59 6 42.9
02:20 1016 30 845 24.95 13.7 56.7 60 6.1 42.9
02:25 1016 30 845 24.95 13.7 56.6 60 6.2 43.1
02:30 1016 30 845 24.95 13.6 56.5 61 6.2 43.2
02:35 1016 30 845 24.95 13.7 56.7 60 6.2 43.2
02:40 1016 30 845 24.95 13.7 56.7 60 6.2 43.1
02:45 1016 30 845 24.95 13.7 56.6 60 6.3 43.3
02:50 1016 30 845 24.95 13.5 56.4 61 6.3 43.3
02:55 1016 30 845 24.95 13.5 56.2 62 6.3 43.4
03:00 1016 30 846 24.98 13.3 55.9 62 6.3 43.4
03:05 1016 30 846 24.98 13.2 55.8 62 6.2 43.2
03:10 1016 30 846 24.98 13.2 55.8 62 6.3 43.3
03:15 1016 30 846 24.98 13.1 55.6 63 6.4 43.5
03:20 1016 30 846 24.98 12.9 55.3 64 6.3 43.3
03:25 1016 30 846 24.98 12.7 54.9 64 6.2 43.2
03:30 1016 30 846 24.98 12.5 54.4 64 5.9 42.7
03:35 1016 30 846 24.98 12.3 54.1 65 5.9 42.6
03:40 1016 30 846 24.98 12.2 53.9 64 5.7 42.3
03:45 1016 30 846 24.98 12.2 53.9 64 5.5 42
03:50 1016 30 846 24.98 12.3 54.2 65 5.9 42.6
03:55 1016 30 846 24.98 12.3 54.1 66 6.1 43
04:00 1016 30 846 24.98 11.7 53.1 68 6 42.8
04:05 1016 30 846 24.98 12 53.6 66 5.9 42.6
04:10 1017 30.03 846 24.98 11.8 53.2 68 6.2 43.1
04:15 1017 30.03 846 24.98 11.3 52.3 69 5.9 42.5
04:20 1017 30.03 846 24.98 10.9 51.5 71 5.8 42.5
04:25 1017 30.03 846 24.98 10.2 50.4 72 5.3 41.6
04:30 1017 30.03 846 24.98 10 50 70 4.8 40.7
04:35 1017 30.03 846 24.98 10.3 50.5 70 5.1 41.2
04:40 1017 30.03 846 24.98 10 50.1 71 5 41
04:45 1017 30.03 846 24.98 10.2 50.3 71 5.1 41.2
04:50 1017 30.03 846 24.98 9.5 49.1 73 5 40.9
04:55 1017 30.03 846 24.98 9.4 49 72 4.6 40.4
05:00 1017 30.03 846 24.98 9.8 49.6 71 4.9 40.8
05:05 1017 30.03 846 24.98 10 49.9 72 5.1 41.3
05:10 1017 30.03 846 24.98 10.3 50.5 70 5.1 41.2
05:15 1017 30.03 846 24.98 10.2 50.4 71 5.3 41.6
05:20 1017 30.03 846 24.98 10.1 50.2 72 5.4 41.7
05:25 1017 30.03 846 24.98 10.1 50.3 72 5.4 41.8
05:30 1017 30.03 846 24.98 10 50 74 5.6 42
05:35 1017 30.03 846 24.98 10.1 50.3 72 5.4 41.8
05:40 1017 30.03 846 24.98 10.5 50.8 72 5.7 42.2
05:45 1017 30.03 846 24.98 10.5 50.9 72 5.8 42.4
05:50 1017 30.03 846 24.98 10.6 51.1 73 5.9 42.7
05:55 1017 30.03 846 24.98 10.8 51.4 72 6 42.8
06:00 1017 30.03 846 24.98 11 51.8 72 6.1 43
06:05 1017 30.03 846 24.98 11.1 51.9 72 6.1 43.1
06:10 1017 30.03 846 24.98 11.1 52.1 70 6 42.8
06:15 1017 30.03 846 24.98 11.5 52.7 69 6 42.8
06:20 1017 30.03 846 24.98 11.9 53.3 68 6.1 43
06:25 1017 30.03 846 24.98 11.8 53.3 68 6.3 43.3
06:30 1017 30.03 846 24.98 11.8 53.3 67 6 42.8
06:35 1017 30.03 846 24.98 12 53.6 67 6.1 43.1
06:40 1017 30.03 846 24.98 12.2 54 67 6.2 43.2
06:45 1017 30.03 846 24.98 12.3 54.1 66 6.2 43.2
06:50 1017 30.03 846 24.98 12.4 54.3 66 6.2 43.2
06:55 1017 30.03 846 24.98 12.5 54.5 66 6.4 43.5
07:00 1017 30.03 846 24.98 12.5 54.5 67 6.5 43.7
07:05 1017 30.03 846 24.98 12.5 54.6 66 6.3 43.4
07:10 1017 30.03 846 24.98 12.8 55 63 6 42.8
07:15 1017 30.03 846 24.98 13.1 55.5 62 5.9 42.7
07:20 1017 30.03 846 24.98 13.3 55.9 62 6.3 43.3
07:25 1017 30.03 846 24.98 13.5 56.4 62 6.6 43.8
07:30 1017 30.03 846 24.98 13.6 56.5 62 6.5 43.7
07:35 1017 30.03 846 24.98 13.3 55.9 63 6.5 43.7
07:40 1017 30.03 846 24.98 13.2 55.7 63 6.3 43.4
07:45 1017 30.03 846 24.98 13.3 56 63 6.5 43.6
07:50 1017 30.03 846 24.98 13.3 56 63 6.5 43.7
07:55 1017 30.03 846 24.98 13.4 56.2 63 6.5 43.7
08:00 1017 30.03 847 25.01 13.5 56.4 62 6.5 43.7
08:05 1018 30.06 847 25.01 13.6 56.4 63 6.6 43.9
08:10 1018 30.06 847 25.01 13.5 56.3 64 6.8 44.3
08:15 1018 30.06 847 25.01 13.4 56 64 6.7 44
08:20 1018 30.06 847 25.01 13.2 55.7 65 6.8 44.2
08:25 1018 30.06 847 25.01 13.1 55.7 66 7 44.5
08:30 1018 30.06 847 25.01 12.8 55.1 70 7.4 45.4
08:35 1018 30.06 848 25.04 12.8 55.1 68 7.2 44.9
08:40 1018 30.06 848 25.04 12.7 54.9 71 7.6 45.6
08:45 1018 30.06 848 25.04 12.5 54.5 72 7.5 45.5
08:50 1018 30.06 848 25.04 12.5 54.4 72 7.6 45.7
08:55 1018 30.06 847 25.01 12.5 54.4 72 7.5 45.5
09:00 1018 30.06 847 25.01 12.4 54.3 72 7.4 45.4
09:05 1018 30.06 847 25.01 12.5 54.4 72 7.6 45.7
09:10 1018 30.06 847 25.01 12.6 54.6 72 7.6 45.6
09:15 1018 30.06 847 25.01 12.7 54.9 72 7.7 45.9
09:20 1018 30.06 847 25.01 13.1 55.5 69 7.5 45.5
09:25 1018 30.06 847 25.01 13.3 55.9 68 7.5 45.5
09:30 1018 30.06 847 25.01 13.8 56.8 65 7.3 45.2
09:35 1018 30.06 847 25.01 13.7 56.7 64 7 44.6
09:40 1018 30.06 847 25.01 14.2 57.6 59 6.4 43.5
09:45 1018 30.06 847 25.01 15 58.9 56 6.4 43.6
09:50 1018 30.06 847 25.01 15.5 59.9 55 6.5 43.7
09:55 1017 30.03 847 25.01 15.7 60.2 54 6.4 43.6
10:00 1018 30.06 847 25.01 15.8 60.4 54 6.7 44
10:05 1018 30.06 847 25.01 15.5 59.9 53 6 42.8
10:10 1018 30.06 847 25.01 16.5 61.7 51 6.4 43.5
10:15 1017 30.03 847 25.01 17 62.5 51 6.9 44.5
10:20 1017 30.03 847 25.01 16.2 61.2 53 6.6 43.9
10:25 1017 30.03 847 25.01 16.3 61.4 51 6.2 43.2
10:30 1017 30.03 847 25.01 17.3 63.1 49 6.6 43.9
10:35 1017 30.03 846 24.98 16.6 61.8 53 6.9 44.4
10:40 1017 30.03 846 24.98 16.3 61.3 49 5.8 42.4
10:45 1017 30.03 846 24.98 16.7 62.1 49 6 42.7
10:50 1017 30.03 846 24.98 17.3 63.2 45 5.3 41.6
10:55 1017 30.03 846 24.98 17.1 62.8 49 6.5 43.6
11:00 1017 30.03 846 24.98 17.2 63 47 5.9 42.6
11:05 1017 30.03 846 24.98 17.3 63.1 46 5.6 42
11:10 1017 30.03 846 24.98 17.5 63.5 43 4.9 40.9
11:15 1017 30.03 846 24.98 17.5 63.5 43 4.8 40.7
11:20 1017 30.03 846 24.98 18.3 65 39 4.1 39.4
11:25 1017 30.03 846 24.98 19.4 66.9 37 4.5 40.2
11:30 1016 30 846 24.98 19.2 66.5 36 3.9 38.9
11:35 1016 30 845 24.95 19.9 67.8 34 3.8 38.8
11:40 1016 30 846 24.98 19.6 67.3 35 3.7 38.7
11:45 1016 30 846 24.98 19.7 67.5 34 3.4 38.1
11:50 1016 30 845 24.95 20.1 68.2 30 2.1 35.8
11:55 1016 30 845 24.95 19.4 67 32 2.6 36.7
12:00 1016 30 845 24.95 20.1 68.2 25 -0.5 31
12:05 1016 30 845 24.95 20.6 69.1 22 -1.5 29.4
12:10 1016 30 845 24.95 21.4 70.5 26 1.5 34.7
12:15 1016 30 845 24.95 19.8 67.7 30 1.7 35.1
12:20 1016 30 845 24.95 19.7 67.5 29 1.2 34.1
12:25 1016 30 845 24.95 20.5 68.9 27 0.9 33.6
12:30 1016 30 845 24.95 20.7 69.2 26 0.6 33
12:35 1015 29.97 845 24.95 20.4 68.7 28 1.3 34.3
12:40 1015 29.97 844 24.92 20.1 68.1 28 0.9 33.7
12:45 1015 29.97 844 24.92 19.8 67.7 27 0.5 32.9
12:50 1015 29.97 844 24.92 19.8 67.7 25 -0.7 30.7
12:55 1015 29.97 844 24.92 20.1 68.2 25 -0.2 31.6
13:00 1015 29.97 844 24.92 20.1 68.2 25 -0.1 31.8
13:05 1015 29.97 844 24.92 20.3 68.6 25 -0.4 31.4
13:10 1015 29.97 844 24.92 20.7 69.3 25 0.3 32.5
13:15 1015 29.97 844 24.92 20.5 69 25 0.2 32.3
13:20 1015 29.97 844 24.92 20.3 68.6 25 0.1 32.1
13:25 1015 29.97 844 24.92 20.7 69.3 24 -0.1 31.8
13:30 1015 29.97 844 24.92 21 69.9 23 -0.8 30.6
13:35 1015 29.97 844 24.92 21.2 70.2 23 -0.5 31.1
13:40 1015 29.97 844 24.92 20.8 69.4 23 -0.7 30.7
13:45 1015 29.97 844 24.92 20.4 68.7 24 -0.6 30.9
13:50 1015 29.97 844 24.92 20.6 69.2 27 1.2 34.1
13:55 1015 29.97 844 24.92 20.1 68.1 34 4 39.2
14:00 1015 29.97 844 24.92 19.6 67.2 35 3.9 39
14:05 1015 29.97 844 24.92 19.3 66.8 36 4.2 39.6
14:10 1015 29.97 844 24.92 19.3 66.7 37 4.3 39.8
14:15 1015 29.97 844 24.92 19.1 66.4 37 4.3 39.8
14:20 1015 29.97 844 24.92 18.9 66 38 4.5 40
14:25 1015 29.97 844 24.92 18.7 65.7 43 6 42.8
14:30 1015 29.97 844 24.92 18.3 65 44 6.1 42.9
14:35 1015 29.97 844 24.92 18.4 65.1 44 6 42.8
14:40 1015 29.97 844 24.92 18.9 65.9 43 6.2 43.1
14:45 1015 29.97 844 24.92 19.5 67 42 6.2 43.2
14:50 1015 29.97 844 24.92 19.4 66.9 40 5.7 42.2
14:55 1015 29.97 844 24.92 19.9 67.9 39 5.7 42.2
15:00 1015 29.97 844 24.92 20 67.9 38 5.3 41.6
15:05 1015 29.97 844 24.92 20.2 68.3 34 3.8 38.8
15:10 1015 29.97 844 24.92 20.1 68.3 34 3.8 38.8
15:15 1015 29.97 844 24.92 20.2 68.4 34 3.9 39
15:20 1014 29.94 844 24.92 20.3 68.6 32 3.1 37.6
15:25 1014 29.94 844 24.92 20.2 68.3 29 1.9 35.5
15:30 1014 29.94 844 24.92 20.1 68.2 30 2.3 36.1
15:35 1014 29.94 843 24.89 19.9 67.7 30 2.1 35.9
15:40 1014 29.94 843 24.89 20.2 68.4 31 2.8 37.1
15:45 1014 29.94 843 24.89 20 68 33 3.5 38.2
15:50 1014 29.94 843 24.89 20 67.9 33 3.4 38.2
15:55 1014 29.94 843 24.89 19.9 67.8 33 3.1 37.6
16:00 1014 29.94 843 24.89 20 67.9 33 3.3 38
16:05 1014 29.94 843 24.89 20.6 69.1 31 3 37.4
16:10 1014 29.94 843 24.89 21 69.8 29 2.6 36.8
16:15 1014 29.94 843 24.89 21.1 70 28 2 35.6
16:20 1014 29.94 843 24.89 21.1 69.9 29 2.3 36.1
16:25 1014 29.94 844 24.92 21 69.7 27 1.7 35
16:30 1015 29.97 844 24.92 20.7 69.2 28 1.6 34.9
16:35 1015 29.97 844 24.92 20.6 69.2 28 1.7 35.1
16:40 1015 29.97 844 24.92 20.8 69.4 28 2 35.6
16:45 1015 29.97 844 24.92 19 66.3 39 4.7 40.5
16:50 1015 29.97 844 24.92 16.5 61.6 42 3.6 38.6
16:55 1016 30 845 24.95 15.5 59.8 46 4.1 39.4
17:00 1016 30 845 24.95 14.6 58.3 50 4.3 39.7
17:05 1016 30 845 24.95 14.2 57.5 51 4.2 39.6
17:10 1017 30.03 846 24.98 14.3 57.7 52 4.6 40.2
17:15 1017 30.03 846 24.98 14.2 57.5 55 5.3 41.6
17:20 1017 30.03 846 24.98 13.9 57.1 56 5.2 41.4
17:25 1016 30 846 24.98 13.2 55.7 61 6 42.7
17:30 1016 30 845 24.95 12.4 54.3 66 6.2 43.1
17:35 1016 30 845 24.95 12.1 53.8 69 6.6 43.9
17:40 1016 30 846 24.98 12.1 53.8 69 6.6 43.9
17:45 1016 30 846 24.98 12.1 53.7 66 6 42.8
17:50 1017 30.03 846 24.98 12.1 53.9 63 5.3 41.5
17:55 1017 30.03 846 24.98 12.1 53.8 63 5.4 41.7
18:00 1017 30.03 846 24.98 12.4 54.3 63 5.6 42.1
18:05 1017 30.03 846 24.98 12.6 54.7 63 5.8 42.5
18:10 1017 30.03 846 24.98 12.6 54.6 64 6 42.7
18:15 1017 30.03 846 24.98 12.4 54.3 65 6.1 43
18:20 1017 30.03 846 24.98 12.4 54.3 62 5.4 41.8
18:25 1017 30.03 846 24.98 12.5 54.5 63 5.7 42.3
18:30 1017 30.03 846 24.98 12.4 54.3 62 5.4 41.7
18:35 1017 30.03 846 24.98 12.7 54.8 59 4.9 40.8
18:40 1017 30.03 846 24.98 12.8 55 60 5.2 41.4
18:45 1017 30.03 846 24.98 12.9 55.1 59 5.1 41.2
18:50 1017 30.03 846 24.98 13 55.4 57 4.7 40.5
18:55 1017 30.03 846 24.98 13.1 55.6 57 4.9 40.8
19:00 1017 30.03 846 24.98 13.2 55.8 56 4.8 40.6
19:05 1017 30.03 846 24.98 13.4 56 56 4.8 40.7
19:10 1017 30.03 846 24.98 13.4 56.2 59 5.5 41.9
19:15 1017 30.03 846 24.98 13.5 56.2 57 5.2 41.3
19:20 1017 30.03 846 24.98 13.3 56 57 5 41
19:25 1017 30.03 846 24.98 13.2 55.8 57 5 41.1
19:30 1017 30.03 846 24.98 13.3 55.9 55 4.6 40.2
19:35 1017 30.03 846 24.98 13.2 55.7 58 5.1 41.1
19:40 1017 30.03 846 24.98 12.9 55.1 61 5.5 41.9
19:45 1017 30.03 846 24.98 12.5 54.6 61 5.3 41.5
19:50 1017 30.03 846 24.98 12.4 54.4 61 5.2 41.3
19:55 1016 30 846 24.98 12.3 54.1 61 5.1 41.1
20:00 1016 30 846 24.98 12.3 54.1 60 4.9 40.7
20:05 1016 30 846 24.98 12.2 54 61 5 41
20:10 1016 30 846 24.98 12.1 53.8 62 5 41
20:15 1017 30.03 846 24.98 12 53.6 62 5.1 41.2
20:20 1017 30.03 846 24.98 11.9 53.4 62 4.9 40.8
20:25 1017 30.03 846 24.98 12 53.5 61 4.8 40.6
20:30 1017 30.03 846 24.98 12.1 53.7 61 4.7 40.5
20:35 1017 30.03 846 24.98 12.1 53.8 60 4.5 40.2
20:40 1017 30.03 846 24.98 12.2 53.9 60 4.6 40.3
20:45 1017 30.03 846 24.98 12.2 53.9 60 4.7 40.4
20:50 1017 30.03 846 24.98 12.1 53.8 60 4.7 40.5
20:55 1017 30.03 846 24.98 12 53.6 61 4.8 40.7
21:00 1017 30.03 846 24.98 11.9 53.4 61 4.8 40.6
21:05 1017 30.03 846 24.98 11.9 53.4 61 4.8 40.6
21:10 1017 30.03 846 24.98 11.8 53.3 62 4.9 40.9
21:15 1017 30.03 846 24.98 11.6 52.9 64 5.1 41.2
21:20 1017 30.03 846 24.98 11.3 52.4 65 5.1 41.2
21:25 1017 30.03 846 24.98 11.1 52.1 66 5.1 41.2
21:30 1017 30.03 847 25.01 11.1 51.9 66 5.1 41.2
21:35 1017 30.03 847 25.01 11.1 51.9 65 4.8 40.6
21:40 1017 30.03 847 25.01 11.2 52.2 65 4.9 40.8
21:45 1017 30.03 846 24.98 11.2 52.1 65 5 40.9
21:50 1017 30.03 847 25.01 11.1 51.9 66 5 40.9
21:55 1017 30.03 846 24.98 11 51.7 66 5 41
22:00 1017 30.03 846 24.98 10.9 51.6 66 4.9 40.8
22:05 1017 30.03 846 24.98 11 51.7 65 4.8 40.6
22:10 1017 30.03 846 24.98 11.1 51.9 65 4.7 40.5
22:15 1017 30.03 846 24.98 11.1 52 65 4.9 40.8
22:20 1017 30.03 846 24.98 11.1 51.9 65 4.9 40.8
22:25 1017 30.03 846 24.98 11.1 51.9 65 4.8 40.6
22:30 1017 30.03 846 24.98 11.1 51.9 65 4.7 40.5
22:35 1017 30.03 846 24.98 11.2 52.1 63 4.5 40.1
22:40 1017 30.03 846 24.98 11.3 52.4 62 4.3 39.7
22:45 1017 30.03 846 24.98 11.4 52.4 62 4.5 40.1
22:50 1017 30.03 846 24.98 10.9 51.5 69 5.4 41.8
22:55 1017 30.03 846 24.98 10.2 50.4 70 5.1 41.1
23:00 1017 30.03 846 24.98 10 50.1 70 4.9 40.8
23:05 1017 30.03 846 24.98 10.1 50.1 69 4.6 40.3
23:10 1017 30.03 846 24.98 10.2 50.3 68 4.7 40.4
23:15 1017 30.03 846 24.98 10.3 50.6 67 4.5 40.2
23:20 1017 30.03 846 24.98 10.4 50.8 67 4.5 40.1
23:25 1017 30.03 846 24.98 10.5 51 66 4.4 40
23:30 1017 30.03 846 24.98 10.7 51.2 67 4.8 40.6
23:35 1017 30.03 846 24.98 10.6 51.1 67 4.7 40.5
23:40 1017 30.03 846 24.98 10.5 50.9 67 4.6 40.3
23:45 1017 30.03 846 24.98 10.4 50.6 66 4.4 39.9
23:50 1017 30.03 846 24.98 10.6 51.1 63 4 39.2
23:55 1017 30.03 846 24.98 10.9 51.6 65 4.7 40.4
24:00 1017 30.03 846 24.98 10.7 51.2 67 4.8 40.6